This is the latest recevied weather packets stored in our database for station/object SQ9PDE-13. If no packets are shown the sender has not sent any weather packets the latest 10 day(s).
| Time | Temp. | Humidity | Pressure | Rain* | Wind** | Luminosity | Snow |
|---|---|---|---|---|---|---|---|
| 1787460638 | 13.89° C | 76% | 1023.3 hPa | - | - | - | - |
| 1787460338 | 13.89° C | 76% | 1023.2 hPa | - | - | - | - |
| 1787460037 | 12.78° C | 78% | 1023.4 hPa | - | - | - | - |
| 1787459737 | 12.78° C | 79% | 1023.3 hPa | - | - | - | - |
| 1787459436 | 12.22° C | 82% | 1023.4 hPa | - | - | - | - |
| 1787459135 | 11.11° C | 85% | 1023.5 hPa | - | - | - | - |
| 1787458835 | 10.56° C | 88% | 1023.5 hPa | - | - | - | - |
| 1787458534 | 10° C | 89% | 1023.5 hPa | - | - | - | - |
| 1787458234 | 10° C | 89% | 1023.5 hPa | - | - | - | - |
| 1787457933 | 10° C | 89% | 1023.4 hPa | - | - | - | - |
| 1787457633 | 10° C | 89% | 1023.4 hPa | - | - | - | - |
| 1787457332 | 10° C | 89% | 1023.3 hPa | - | - | - | - |
| 1787457032 | 9.44° C | 89% | 1023.3 hPa | - | - | - | - |
| 1787456731 | 9.44° C | 89% | 1023.3 hPa | - | - | - | - |
| 1787456431 | 9.44° C | 89% | 1023.3 hPa | - | - | - | - |
| 1787456130 | 9.44° C | 89% | 1023.2 hPa | - | - | - | - |
| 1787455830 | 10° C | 89% | 1023.2 hPa | - | - | - | - |
| 1787455529 | 10° C | 88% | 1023.1 hPa | - | - | - | - |
| 1787455229 | 10° C | 89% | 1023.1 hPa | - | - | - | - |
| 1787454928 | 10° C | 89% | 1023.1 hPa | - | - | - | - |
| 1787454327 | 10° C | 89% | 1022.9 hPa | - | - | - | - |
| 1787454027 | 10° C | 88% | 1022.8 hPa | - | - | - | - |
| 1787453726 | 10° C | 88% | 1022.7 hPa | - | - | - | - |
| 1787453426 | 10° C | 88% | 1022.7 hPa | - | - | - | - |
| 1787453125 | 10° C | 88% | 1022.7 hPa | - | - | - | - |
* Rain since midnight (hover to see other rain measurements)
** Current wind speed in m/s (hover to see current wind gust speed)